createdAt,value
2019-03-30T00:00:52.245Z,4.28
2019-03-30T00:01:52.226Z,4.24
2019-03-30T00:02:52.211Z,4.31
2019-03-30T00:03:52.188Z,4.27
2019-03-30T00:04:52.169Z,4.30
2019-03-30T00:05:52.150Z,4.22
2019-03-30T00:06:52.133Z,4.31
2019-03-30T00:07:52.114Z,4.27
2019-03-30T00:08:52.098Z,4.14
2019-03-30T00:09:52.079Z,4.18
2019-03-30T00:10:52.061Z,4.24
2019-03-30T00:11:52.040Z,4.18
2019-03-30T00:12:52.025Z,4.25
2019-03-30T00:13:52.007Z,4.21
2019-03-30T00:14:51.991Z,4.16
2019-03-30T00:15:51.970Z,4.16
2019-03-30T00:16:51.951Z,4.10
2019-03-30T00:17:51.929Z,4.18
2019-03-30T00:18:51.917Z,4.18
2019-03-30T00:19:51.894Z,4.12
2019-03-30T00:20:51.879Z,4.12
2019-03-30T00:21:51.857Z,4.22
2019-03-30T00:22:51.841Z,4.21
2019-03-30T00:23:51.836Z,4.10
2019-03-30T00:24:51.799Z,4.14
2019-03-30T00:25:51.783Z,4.13
2019-03-30T00:26:51.762Z,4.14
2019-03-30T00:27:51.747Z,4.18
2019-03-30T00:28:51.729Z,4.22
2019-03-30T00:29:51.708Z,4.13
2019-03-30T00:30:51.688Z,4.18
2019-03-30T00:31:51.672Z,4.06
2019-03-30T00:32:51.646Z,4.21
2019-03-30T00:33:51.631Z,4.16
2019-03-30T00:34:51.617Z,4.16
2019-03-30T00:35:51.596Z,4.09
2019-03-30T00:36:51.578Z,4.21
2019-03-30T00:37:51.558Z,4.20
2019-03-30T00:38:51.539Z,4.34
2019-03-30T00:39:51.524Z,4.36
2019-03-30T00:40:51.505Z,4.49
2019-03-30T00:41:51.486Z,4.57
2019-03-30T00:42:51.463Z,4.75
2019-03-30T00:43:51.442Z,4.78
2019-03-30T00:44:51.432Z,4.95
2019-03-30T00:45:51.409Z,5.16
2019-03-30T00:46:51.393Z,5.41
2019-03-30T00:47:51.378Z,5.55
2019-03-30T00:48:51.354Z,5.70
2019-03-30T00:49:51.335Z,5.87
2019-03-30T00:50:51.318Z,6.06
2019-03-30T00:51:51.300Z,6.15
2019-03-30T00:52:51.288Z,6.36
2019-03-30T00:53:51.267Z,6.46
2019-03-30T00:54:51.245Z,6.59
2019-03-30T00:55:51.231Z,6.77
2019-03-30T00:56:51.211Z,6.87
2019-03-30T00:57:51.195Z,6.87
2019-03-30T00:58:51.172Z,6.90
2019-03-30T00:59:51.159Z,7.01
2019-03-30T01:00:51.141Z,7.03
2019-03-30T01:01:51.126Z,7.22
2019-03-30T01:02:51.105Z,7.28
2019-03-30T01:03:51.084Z,7.43
2019-03-30T01:04:51.064Z,7.58
2019-03-30T01:05:51.048Z,7.83
2019-03-30T01:06:51.026Z,8.01
2019-03-30T01:07:51.015Z,8.13
2019-03-30T01:08:50.994Z,8.17
2019-03-30T01:09:50.980Z,8.11
2019-03-30T01:10:50.959Z,8.20
2019-03-30T01:11:50.938Z,8.23
2019-03-30T01:12:50.927Z,8.35
2019-03-30T01:13:50.909Z,8.38
2019-03-30T01:14:50.905Z,8.56
2019-03-30T01:15:50.874Z,8.66
2019-03-30T01:16:50.857Z,8.72
2019-03-30T01:17:50.836Z,8.78
2019-03-30T01:18:50.833Z,8.87
2019-03-30T01:20:02.389Z,8.89
2019-03-30T01:20:50.794Z,8.99
2019-03-30T01:21:50.772Z,9.11
2019-03-30T01:22:50.751Z,9.18
2019-03-30T01:23:50.733Z,9.24
2019-03-30T01:24:50.720Z,9.36
2019-03-30T01:25:50.707Z,9.34
2019-03-30T01:26:50.678Z,9.42
2019-03-30T01:27:50.667Z,9.48
2019-03-30T01:28:50.649Z,9.55
2019-03-30T01:29:50.632Z,9.56
2019-03-30T01:30:50.614Z,9.59
2019-03-30T01:31:50.599Z,9.55
2019-03-30T01:32:50.583Z,9.64
2019-03-30T01:33:50.565Z,9.73
2019-03-30T01:34:50.555Z,9.76
2019-03-30T01:35:50.533Z,9.85
2019-03-30T01:36:50.515Z,9.88
2019-03-30T01:37:50.492Z,9.91
2019-03-30T01:38:50.482Z,9.91
2019-03-30T01:39:50.463Z,9.99
2019-03-30T01:40:50.447Z,10.02
2019-03-30T01:41:50.430Z,10.05
2019-03-30T01:42:50.418Z,10.05
2019-03-30T01:43:50.396Z,10.06
2019-03-30T01:44:50.381Z,10.02
2019-03-30T01:45:50.362Z,10.10
2019-03-30T01:46:50.343Z,10.05
2019-03-30T01:47:50.331Z,10.06
2019-03-30T01:48:50.317Z,10.09
2019-03-30T01:49:50.294Z,10.13
2019-03-30T01:50:50.279Z,10.02
2019-03-30T01:51:50.263Z,10.15
2019-03-30T01:52:50.244Z,10.12
2019-03-30T01:53:50.230Z,10.13
2019-03-30T01:54:50.211Z,10.30
2019-03-30T01:55:50.194Z,10.20
2019-03-30T01:56:50.179Z,10.24
2019-03-30T01:57:50.162Z,10.30
2019-03-30T01:58:50.143Z,10.33
2019-03-30T01:59:50.131Z,10.24
2019-03-30T02:00:50.114Z,10.21
2019-03-30T02:01:50.102Z,10.18
2019-03-30T02:02:50.078Z,10.17
2019-03-30T02:03:50.063Z,10.05
2019-03-30T02:04:50.048Z,9.94
2019-03-30T02:05:50.029Z,9.81
2019-03-30T02:06:50.029Z,9.76
2019-03-30T02:07:49.995Z,9.64
2019-03-30T02:08:49.978Z,9.55
2019-03-30T02:09:49.962Z,9.36
2019-03-30T02:10:49.945Z,9.26
2019-03-30T02:11:49.931Z,9.11
2019-03-30T02:12:49.915Z,9.00
2019-03-30T02:13:49.899Z,8.81
2019-03-30T02:14:49.879Z,8.66
2019-03-30T02:15:49.866Z,8.61
2019-03-30T02:16:49.846Z,8.50
2019-03-30T02:17:49.826Z,8.38
2019-03-30T02:18:49.808Z,8.26
2019-03-30T02:19:49.796Z,8.14
2019-03-30T02:20:49.778Z,8.08
2019-03-30T02:21:49.763Z,8.01
2019-03-30T02:22:49.741Z,7.85
2019-03-30T02:23:49.728Z,7.72
2019-03-30T02:24:49.710Z,7.59
2019-03-30T02:25:49.697Z,7.46
2019-03-30T02:26:49.671Z,7.41
2019-03-30T02:27:49.658Z,7.22
2019-03-30T02:28:49.638Z,7.14
2019-03-30T02:29:49.625Z,7.03
2019-03-30T02:30:49.641Z,6.97
2019-03-30T02:31:49.591Z,6.87
2019-03-30T02:32:49.568Z,6.87
2019-03-30T02:33:49.557Z,6.78
2019-03-30T02:34:49.535Z,6.67
2019-03-30T02:35:49.523Z,6.60
2019-03-30T02:36:49.501Z,6.54
2019-03-30T02:37:49.480Z,6.41
2019-03-30T02:38:49.464Z,6.35
2019-03-30T02:39:49.444Z,6.31
2019-03-30T02:40:49.442Z,6.26
2019-03-30T02:41:49.411Z,6.16
2019-03-30T02:42:49.391Z,6.06
2019-03-30T02:43:49.374Z,5.94
2019-03-30T02:44:49.359Z,5.94
2019-03-30T02:45:49.337Z,5.90
2019-03-30T02:46:49.320Z,5.76
2019-03-30T02:47:49.304Z,5.77
2019-03-30T02:48:49.285Z,5.67
2019-03-30T02:49:49.266Z,5.65
2019-03-30T02:50:50.797Z,5.51
2019-03-30T02:51:49.233Z,5.51
2019-03-30T02:52:49.207Z,5.46
2019-03-30T02:53:49.202Z,5.44
2019-03-30T02:54:49.187Z,5.43
2019-03-30T02:55:49.162Z,5.28
2019-03-30T02:56:49.154Z,5.23
2019-03-30T02:57:49.123Z,5.18
2019-03-30T02:58:49.106Z,5.07
2019-03-30T02:59:49.086Z,5.07
2019-03-30T03:00:49.076Z,4.97
2019-03-30T03:01:49.044Z,4.92
2019-03-30T03:02:49.034Z,4.89
2019-03-30T03:03:49.013Z,4.92
2019-03-30T03:04:48.993Z,4.84
2019-03-30T03:05:48.975Z,4.74
2019-03-30T03:06:48.958Z,4.63
2019-03-30T03:07:48.936Z,4.68
2019-03-30T03:08:48.924Z,4.66
2019-03-30T03:09:48.904Z,4.63
2019-03-30T03:10:48.887Z,4.57
2019-03-30T03:11:48.872Z,4.53
2019-03-30T03:12:48.851Z,4.49
2019-03-30T03:13:48.838Z,4.40
2019-03-30T03:14:48.811Z,4.38
2019-03-30T03:15:48.794Z,4.30
2019-03-30T03:16:48.773Z,4.32
2019-03-30T03:17:48.752Z,4.38
2019-03-30T03:18:48.735Z,4.20
2019-03-30T03:19:48.719Z,4.21
2019-03-30T03:21:06.160Z,4.20
2019-03-30T03:21:48.671Z,4.24
2019-03-30T03:22:48.670Z,4.14
2019-03-30T03:23:48.637Z,4.16
2019-03-30T03:24:48.623Z,4.10
2019-03-30T03:25:48.607Z,4.04
2019-03-30T03:26:48.587Z,4.02
2019-03-30T03:27:48.565Z,3.91
2019-03-30T03:28:48.553Z,3.92
2019-03-30T03:29:48.532Z,3.82
2019-03-30T03:30:48.515Z,3.89
2019-03-30T03:31:48.507Z,3.77
2019-03-30T03:32:48.489Z,3.76
2019-03-30T03:33:48.468Z,3.74
2019-03-30T03:34:48.444Z,3.67
2019-03-30T03:35:48.420Z,3.70
2019-03-30T03:36:48.403Z,3.63
2019-03-30T03:37:48.382Z,3.63
2019-03-30T03:38:48.358Z,3.49
2019-03-30T03:39:48.354Z,3.41
2019-03-30T03:40:48.349Z,3.36
2019-03-30T03:41:48.308Z,3.36
2019-03-30T03:42:48.295Z,3.27
2019-03-30T03:43:48.272Z,3.30
2019-03-30T03:44:48.253Z,3.19
2019-03-30T03:45:48.240Z,3.11
2019-03-30T03:46:48.213Z,3.12
2019-03-30T03:47:48.213Z,3.06
2019-03-30T03:48:48.175Z,3.08
2019-03-30T03:49:48.159Z,3.05
2019-03-30T03:50:48.148Z,3.06
2019-03-30T03:51:48.122Z,2.98
2019-03-30T03:52:48.102Z,2.90
2019-03-30T03:53:48.080Z,2.91
2019-03-30T03:54:48.065Z,2.93
2019-03-30T03:55:48.070Z,2.93
2019-03-30T03:56:48.022Z,2.95
2019-03-30T03:57:48.003Z,2.94
2019-03-30T03:58:47.984Z,2.91
2019-03-30T03:59:47.968Z,2.91
2019-03-30T04:00:47.946Z,2.85
2019-03-30T04:01:47.930Z,2.82
2019-03-30T04:02:47.908Z,2.85
2019-03-30T04:03:47.890Z,2.75
2019-03-30T04:04:47.925Z,2.75
2019-03-30T04:05:47.860Z,2.80
2019-03-30T04:06:47.827Z,2.80
2019-03-30T04:07:47.809Z,2.73
2019-03-30T04:08:47.820Z,2.70
2019-03-30T04:09:47.770Z,2.68
2019-03-30T04:10:47.764Z,2.68
2019-03-30T04:11:47.734Z,2.70
2019-03-30T04:12:47.726Z,2.58
2019-03-30T04:13:47.696Z,2.69
2019-03-30T04:14:47.676Z,2.62
2019-03-30T04:15:47.655Z,2.55
2019-03-30T04:16:47.641Z,2.57
2019-03-30T04:17:47.618Z,2.55
2019-03-30T04:18:48.405Z,2.59
2019-03-30T04:19:47.589Z,2.59
2019-03-30T04:20:47.560Z,2.58
2019-03-30T04:21:47.536Z,2.59
2019-03-30T04:22:47.527Z,2.57
2019-03-30T04:23:47.503Z,2.50
2019-03-30T04:24:47.483Z,2.59
2019-03-30T04:25:47.458Z,2.46
2019-03-30T04:26:47.441Z,2.55
2019-03-30T04:27:47.430Z,2.54
2019-03-30T04:28:47.408Z,2.51
2019-03-30T04:29:47.393Z,2.52
2019-03-30T04:30:47.368Z,2.55
2019-03-30T04:31:47.352Z,2.54
2019-03-30T04:32:47.331Z,2.50
2019-03-30T04:33:47.324Z,2.52
2019-03-30T04:34:47.293Z,2.46
2019-03-30T04:35:47.270Z,2.41
2019-03-30T04:36:47.249Z,2.37
2019-03-30T04:37:47.240Z,2.44
2019-03-30T04:38:47.218Z,2.46
2019-03-30T04:39:47.202Z,2.43
2019-03-30T04:40:47.173Z,2.36
2019-03-30T04:41:47.162Z,2.37
2019-03-30T04:42:47.136Z,2.39
2019-03-30T04:43:47.114Z,2.37
2019-03-30T04:44:47.124Z,2.32
2019-03-30T04:45:47.076Z,2.26
2019-03-30T04:46:47.072Z,2.34
2019-03-30T04:47:47.038Z,2.26
2019-03-30T04:48:47.031Z,2.28
2019-03-30T04:49:47.000Z,2.23
2019-03-30T04:50:46.980Z,2.32
2019-03-30T04:51:57.427Z,2.25
2019-03-30T04:52:46.953Z,2.30
2019-03-30T04:53:46.922Z,2.26
2019-03-30T04:54:46.903Z,2.30
2019-03-30T04:55:46.883Z,2.26
2019-03-30T04:56:46.862Z,2.25
2019-03-30T04:57:49.625Z,2.16
2019-03-30T04:58:46.852Z,2.26
2019-03-30T04:59:46.809Z,2.26
2019-03-30T05:00:46.792Z,2.19
2019-03-30T05:01:46.766Z,2.22
2019-03-30T05:02:46.785Z,2.25
2019-03-30T05:03:46.771Z,2.21
2019-03-30T05:04:46.710Z,2.23
2019-03-30T05:05:46.684Z,2.12
2019-03-30T05:06:46.670Z,2.12
2019-03-30T05:07:46.647Z,2.21
2019-03-30T05:08:46.633Z,2.19
2019-03-30T05:09:46.610Z,2.22
2019-03-30T05:10:46.596Z,2.25
2019-03-30T05:11:46.569Z,2.18
2019-03-30T05:12:46.637Z,2.18
2019-03-30T05:13:46.531Z,2.16
2019-03-30T05:14:46.513Z,2.19
2019-03-30T05:15:46.490Z,2.22
2019-03-30T05:16:46.484Z,2.23
2019-03-30T05:17:48.054Z,2.23
2019-03-30T05:18:46.432Z,2.23
2019-03-30T05:19:46.438Z,2.23
2019-03-30T05:20:46.501Z,2.22
2019-03-30T05:21:46.375Z,2.21
2019-03-30T05:22:46.372Z,2.21
2019-03-30T05:23:46.336Z,2.26
2019-03-30T05:24:46.325Z,2.10
2019-03-30T05:25:46.291Z,2.21
2019-03-30T05:26:46.279Z,2.22
2019-03-30T05:27:46.260Z,2.18
2019-03-30T05:28:46.256Z,2.23
2019-03-30T05:29:46.222Z,2.21
2019-03-30T05:30:46.209Z,2.21
2019-03-30T05:31:46.181Z,2.25
2019-03-30T05:32:46.167Z,2.28
2019-03-30T05:33:46.144Z,2.23
2019-03-30T05:34:46.131Z,2.25
2019-03-30T05:35:46.102Z,2.21
2019-03-30T05:36:46.087Z,2.30
2019-03-30T05:37:46.066Z,2.32
2019-03-30T05:38:46.062Z,2.25
2019-03-30T05:39:46.025Z,2.23
2019-03-30T05:40:46.015Z,2.23
2019-03-30T05:41:45.988Z,2.30
2019-03-30T05:42:45.968Z,2.25
2019-03-30T05:43:45.948Z,2.22
2019-03-30T05:44:45.928Z,2.33
2019-03-30T05:45:45.909Z,2.33
2019-03-30T05:46:45.896Z,2.39
2019-03-30T05:47:45.866Z,2.40
2019-03-30T05:48:45.868Z,2.40
2019-03-30T05:49:45.825Z,2.41
2019-03-30T05:50:45.810Z,2.40
2019-03-30T05:51:45.798Z,2.47
2019-03-30T05:52:45.776Z,2.50
2019-03-30T05:53:45.752Z,2.46
2019-03-30T05:54:45.738Z,2.52
2019-03-30T05:55:45.715Z,2.50
2019-03-30T05:56:45.699Z,2.51
2019-03-30T05:57:45.677Z,2.51
2019-03-30T05:58:45.682Z,2.52
2019-03-30T05:59:45.645Z,2.58
2019-03-30T06:00:45.622Z,2.52
2019-03-30T06:01:45.599Z,2.62
2019-03-30T06:02:45.585Z,2.72
2019-03-30T06:03:45.578Z,2.69
2019-03-30T06:04:45.540Z,2.75
2019-03-30T06:05:45.523Z,2.75
2019-03-30T06:06:45.495Z,2.79
2019-03-30T06:07:45.492Z,2.87
2019-03-30T06:08:45.469Z,2.90
2019-03-30T06:09:45.457Z,2.91
2019-03-30T06:10:45.426Z,2.98
2019-03-30T06:11:45.413Z,3.05
2019-03-30T06:12:45.387Z,3.06
2019-03-30T06:13:45.370Z,3.13
2019-03-30T06:14:45.348Z,3.19
2019-03-30T06:15:45.346Z,3.31
2019-03-30T06:16:45.322Z,3.37
2019-03-30T06:17:45.294Z,3.45
2019-03-30T06:18:45.271Z,3.48
2019-03-30T06:19:45.257Z,3.59
2019-03-30T06:20:45.236Z,3.66
2019-03-30T06:21:45.216Z,3.81
2019-03-30T06:22:45.216Z,3.82
2019-03-30T06:23:48.413Z,3.91
2019-03-30T06:24:45.180Z,4.16
2019-03-30T06:25:45.147Z,4.18
2019-03-30T06:26:45.121Z,4.30
2019-03-30T06:27:45.109Z,4.40
2019-03-30T06:28:45.090Z,4.57
2019-03-30T06:29:45.068Z,4.64
2019-03-30T06:30:45.052Z,4.84
2019-03-30T06:31:46.701Z,4.87
2019-03-30T06:32:45.013Z,4.95
2019-03-30T06:33:45.003Z,5.08
2019-03-30T06:34:44.980Z,5.15
2019-03-30T06:35:44.970Z,5.26
2019-03-30T06:36:44.942Z,5.43
2019-03-30T06:37:44.923Z,5.43
2019-03-30T06:38:44.904Z,5.55
2019-03-30T06:39:44.888Z,5.59
2019-03-30T06:40:44.870Z,5.77
2019-03-30T06:41:44.849Z,5.81
2019-03-30T06:42:44.840Z,5.95
2019-03-30T06:43:44.833Z,6.15
2019-03-30T06:44:44.815Z,6.28
2019-03-30T06:45:44.788Z,6.41
2019-03-30T06:46:44.765Z,6.56
2019-03-30T06:47:44.876Z,6.72
2019-03-30T06:48:44.732Z,6.75
2019-03-30T06:49:44.744Z,6.90
2019-03-30T06:50:44.690Z,7.05
2019-03-30T06:51:44.669Z,7.21
2019-03-30T06:52:56.728Z,7.25
2019-03-30T06:53:44.675Z,7.46
2019-03-30T06:54:44.637Z,7.58
2019-03-30T06:55:44.608Z,7.74
2019-03-30T06:56:44.617Z,7.84
2019-03-30T06:57:44.569Z,7.96
2019-03-30T06:58:44.606Z,8.16
2019-03-30T06:59:44.535Z,8.18
2019-03-30T07:00:44.526Z,8.28
2019-03-30T07:01:44.549Z,8.38
2019-03-30T07:02:44.487Z,8.56
2019-03-30T07:03:44.468Z,8.72
2019-03-30T07:04:44.456Z,8.82
2019-03-30T07:05:44.441Z,8.87
2019-03-30T07:06:44.423Z,8.99
2019-03-30T07:07:44.420Z,9.19
2019-03-30T07:08:44.393Z,9.37
2019-03-30T07:09:44.391Z,9.45
2019-03-30T07:10:44.356Z,9.55
2019-03-30T07:11:44.343Z,9.62
2019-03-30T07:12:44.323Z,9.70
2019-03-30T07:13:44.311Z,9.84
2019-03-30T07:14:44.300Z,9.91
2019-03-30T07:15:44.276Z,10.02
2019-03-30T07:16:44.265Z,10.15
2019-03-30T07:17:44.247Z,10.23
2019-03-30T07:18:44.230Z,10.30
2019-03-30T07:19:44.215Z,10.51
2019-03-30T07:20:44.318Z,10.57
2019-03-30T07:21:44.199Z,10.58
2019-03-30T07:22:44.193Z,10.68
2019-03-30T07:23:44.167Z,10.80
2019-03-30T07:24:44.149Z,10.86
2019-03-30T07:25:44.134Z,11.00
2019-03-30T07:26:44.119Z,11.07
2019-03-30T07:27:44.189Z,11.12
2019-03-30T07:28:46.942Z,11.22
2019-03-30T07:29:44.062Z,11.30
2019-03-30T07:30:44.055Z,11.40
2019-03-30T07:31:44.057Z,11.49
2019-03-30T07:32:44.027Z,11.59
2019-03-30T07:33:44.009Z,11.63
2019-03-30T07:34:43.992Z,11.71
2019-03-30T07:35:43.978Z,11.81
2019-03-30T07:36:43.964Z,11.93
2019-03-30T07:37:43.946Z,11.99
2019-03-30T07:38:43.927Z,12.10
2019-03-30T07:39:43.920Z,12.20
2019-03-30T07:40:43.911Z,12.30
2019-03-30T07:41:43.891Z,12.36
2019-03-30T07:42:43.882Z,12.47
2019-03-30T07:43:43.901Z,12.50
2019-03-30T07:44:43.854Z,12.65
2019-03-30T07:45:43.837Z,12.66
2019-03-30T07:46:43.825Z,12.70
2019-03-30T07:47:43.805Z,12.80
2019-03-30T07:48:43.796Z,12.91
2019-03-30T07:49:43.787Z,12.95
2019-03-30T07:50:43.886Z,13.06
2019-03-30T07:51:43.757Z,13.17
2019-03-30T07:52:43.757Z,13.24
2019-03-30T07:53:44.986Z,13.31
2019-03-30T07:54:43.717Z,13.37
2019-03-30T07:55:43.713Z,13.54
2019-03-30T07:56:43.687Z,13.58
2019-03-30T07:57:43.699Z,13.70
2019-03-30T07:58:43.672Z,13.75
2019-03-30T07:59:43.668Z,13.89
2019-03-30T08:00:43.659Z,13.93
2019-03-30T08:01:43.622Z,14.08
2019-03-30T08:02:43.612Z,14.11
2019-03-30T08:03:43.615Z,14.33
2019-03-30T08:04:43.608Z,14.36
2019-03-30T08:05:43.574Z,14.45
2019-03-30T08:06:43.572Z,14.66
2019-03-30T08:07:43.551Z,14.78
2019-03-30T08:08:43.541Z,14.81
2019-03-30T08:09:43.557Z,14.90
2019-03-30T08:10:43.520Z,14.99
2019-03-30T08:11:43.505Z,15.17
2019-03-30T08:12:43.484Z,15.35
2019-03-30T08:13:43.477Z,15.44
2019-03-30T08:14:45.099Z,15.50
2019-03-30T08:15:43.452Z,15.62
2019-03-30T08:16:43.443Z,15.75
2019-03-30T08:17:43.437Z,15.91
2019-03-30T08:18:43.433Z,15.96
2019-03-30T08:19:43.590Z,16.08
2019-03-30T08:20:43.400Z,16.21
2019-03-30T08:21:43.386Z,16.31
2019-03-30T08:22:43.397Z,16.44
2019-03-30T08:23:43.405Z,16.55
2019-03-30T08:24:43.357Z,16.69
2019-03-30T08:25:43.355Z,16.82
2019-03-30T08:26:43.343Z,16.98
2019-03-30T08:27:43.321Z,17.14
2019-03-30T08:28:43.312Z,17.02
2019-03-30T08:29:43.302Z,17.13
2019-03-30T08:30:43.290Z,17.31
2019-03-30T08:31:43.280Z,17.42
2019-03-30T08:32:43.285Z,17.52
2019-03-30T08:33:43.260Z,17.79
2019-03-30T08:34:43.254Z,17.80
2019-03-30T08:35:43.320Z,18.00
2019-03-30T08:36:43.232Z,18.12
2019-03-30T08:37:43.220Z,18.31
2019-03-30T08:38:43.215Z,18.57
2019-03-30T08:39:43.203Z,18.70
2019-03-30T08:40:43.192Z,18.67
2019-03-30T08:41:43.186Z,18.81
2019-03-30T08:42:43.172Z,18.96
2019-03-30T08:43:43.270Z,19.07
2019-03-30T08:44:43.155Z,19.16
2019-03-30T08:45:43.146Z,19.20
2019-03-30T08:46:43.268Z,19.42
2019-03-30T08:47:43.129Z,19.59
2019-03-30T08:48:43.123Z,19.78
2019-03-30T08:49:43.119Z,19.93
2019-03-30T08:50:43.121Z,20.07
2019-03-30T08:51:43.092Z,20.19
2019-03-30T08:52:43.088Z,20.34
2019-03-30T08:53:53.963Z,20.55
2019-03-30T08:54:43.075Z,20.60
2019-03-30T08:55:43.060Z,20.67
2019-03-30T08:56:43.051Z,20.73
2019-03-30T08:57:43.043Z,20.83
2019-03-30T08:58:43.044Z,21.01
2019-03-30T08:59:43.030Z,21.17
2019-03-30T09:00:43.023Z,21.43
2019-03-30T09:01:43.010Z,21.53
2019-03-30T09:02:43.017Z,21.75
2019-03-30T09:03:43.003Z,21.91
2019-03-30T09:04:43.009Z,22.06
2019-03-30T09:05:42.983Z,22.04
2019-03-30T09:06:42.972Z,22.04
2019-03-30T09:07:42.964Z,21.99
2019-03-30T09:08:42.963Z,21.91
2019-03-30T09:09:42.953Z,21.80
2019-03-30T09:10:42.952Z,21.89
2019-03-30T09:11:43.608Z,21.92
2019-03-30T09:12:42.932Z,22.01
2019-03-30T09:13:42.921Z,22.08
2019-03-30T09:14:42.913Z,22.21
2019-03-30T09:15:42.917Z,22.37
2019-03-30T09:16:42.911Z,22.56
2019-03-30T09:17:42.905Z,22.71
2019-03-30T09:18:42.903Z,22.81
2019-03-30T09:19:42.890Z,23.04
2019-03-30T09:20:42.925Z,23.13
2019-03-30T09:21:42.884Z,23.17
2019-03-30T09:22:42.864Z,23.29
2019-03-30T09:23:42.849Z,23.48
2019-03-30T09:24:42.847Z,23.58
2019-03-30T09:25:42.838Z,23.69
2019-03-30T09:26:42.842Z,23.86
2019-03-30T09:27:42.830Z,24.04
2019-03-30T09:28:42.822Z,24.24
2019-03-30T09:29:42.831Z,24.34
2019-03-30T09:30:42.807Z,24.53
2019-03-30T09:31:42.812Z,24.61
2019-03-30T09:32:45.089Z,24.71
2019-03-30T09:33:42.796Z,24.79
2019-03-30T09:34:42.783Z,24.93
2019-03-30T09:35:42.789Z,24.96
2019-03-30T09:36:42.863Z,24.94
2019-03-30T09:37:42.771Z,24.85
2019-03-30T09:38:42.763Z,24.88
2019-03-30T09:39:42.768Z,24.77
2019-03-30T09:40:42.753Z,24.88
2019-03-30T09:41:42.750Z,24.92
2019-03-30T09:42:42.746Z,24.96
2019-03-30T09:43:42.734Z,24.97
2019-03-30T09:44:42.730Z,25.18
2019-03-30T09:45:42.727Z,25.24
2019-03-30T09:46:42.719Z,25.55
2019-03-30T09:47:42.714Z,25.70
2019-03-30T09:48:42.709Z,25.93
2019-03-30T09:49:42.708Z,25.98
2019-03-30T09:50:42.692Z,26.04
2019-03-30T09:51:42.695Z,26.16
2019-03-30T09:52:42.702Z,26.11
2019-03-30T09:53:42.682Z,26.16
2019-03-30T09:54:42.677Z,26.27
2019-03-30T09:55:42.672Z,26.30
2019-03-30T09:56:42.670Z,26.51
2019-03-30T09:57:42.663Z,26.56
2019-03-30T09:58:42.656Z,26.49
2019-03-30T09:59:42.664Z,26.46
2019-03-30T10:00:42.651Z,26.13
2019-03-30T10:01:42.646Z,26.13
2019-03-30T10:02:42.641Z,25.98
2019-03-30T10:03:42.638Z,26.11
2019-03-30T10:04:42.632Z,26.24
2019-03-30T10:05:42.630Z,26.42
2019-03-30T10:06:42.625Z,26.48
2019-03-30T10:07:42.621Z,26.49
2019-03-30T10:08:42.615Z,26.68
2019-03-30T10:09:42.613Z,26.79
2019-03-30T10:10:42.605Z,27.01
2019-03-30T10:11:42.602Z,27.19
2019-03-30T10:12:42.598Z,27.30
2019-03-30T10:13:42.594Z,27.28
2019-03-30T10:14:42.589Z,27.25
2019-03-30T10:15:42.584Z,27.34
2019-03-30T10:16:42.586Z,27.47
2019-03-30T10:17:42.578Z,27.61
2019-03-30T10:18:42.573Z,27.64
2019-03-30T10:19:42.568Z,27.79
2019-03-30T10:20:42.565Z,27.78
2019-03-30T10:21:42.565Z,27.75
2019-03-30T10:22:42.608Z,27.73
2019-03-30T10:23:42.558Z,27.91
2019-03-30T10:24:42.550Z,28.01
2019-03-30T10:25:42.546Z,27.95
2019-03-30T10:26:42.543Z,28.00
2019-03-30T10:27:42.543Z,27.83
2019-03-30T10:28:42.537Z,27.63
2019-03-30T10:29:42.532Z,27.66
2019-03-30T10:30:42.528Z,27.79
2019-03-30T10:31:42.526Z,27.93
2019-03-30T10:32:42.528Z,28.10
2019-03-30T10:33:42.518Z,28.28
2019-03-30T10:34:42.518Z,28.46
2019-03-30T10:35:42.508Z,28.60
2019-03-30T10:36:42.508Z,28.78
2019-03-30T10:37:42.502Z,29.05
2019-03-30T10:38:42.513Z,29.16
2019-03-30T10:39:42.497Z,28.96
2019-03-30T10:40:42.495Z,28.82
2019-03-30T10:41:42.495Z,28.80
2019-03-30T10:42:42.490Z,28.78
2019-03-30T10:43:42.485Z,28.86
2019-03-30T10:44:42.498Z,28.84
2019-03-30T10:45:42.478Z,28.93
2019-03-30T10:46:42.477Z,28.87
2019-03-30T10:47:42.475Z,28.68
2019-03-30T10:48:42.473Z,28.64
2019-03-30T10:49:42.469Z,28.34
2019-03-30T10:50:42.469Z,28.30
2019-03-30T10:51:42.586Z,28.12
2019-03-30T10:52:42.459Z,28.00
2019-03-30T10:53:42.464Z,27.97
2019-03-30T10:54:52.510Z,28.13
2019-03-30T10:55:42.446Z,28.13
2019-03-30T10:56:42.470Z,28.34
2019-03-30T10:57:42.445Z,28.22
2019-03-30T10:58:42.441Z,28.16
2019-03-30T10:59:42.436Z,28.12
2019-03-30T11:00:42.442Z,28.16
2019-03-30T11:01:42.435Z,28.41
2019-03-30T11:02:42.432Z,28.59
2019-03-30T11:03:42.429Z,28.71
2019-03-30T11:04:42.428Z,28.72
2019-03-30T11:05:42.421Z,28.84
2019-03-30T11:06:42.480Z,29.07
2019-03-30T11:07:42.416Z,29.30
2019-03-30T11:08:42.418Z,29.40
2019-03-30T11:09:42.405Z,29.53
2019-03-30T11:10:42.412Z,29.68
2019-03-30T11:11:42.402Z,29.61
2019-03-30T11:12:42.405Z,29.74
2019-03-30T11:13:42.402Z,29.84
2019-03-30T11:14:42.404Z,30.02
2019-03-30T11:15:42.397Z,30.02
2019-03-30T11:16:42.398Z,30.05
2019-03-30T11:17:42.397Z,30.21
2019-03-30T11:18:42.393Z,30.21
2019-03-30T11:19:42.390Z,29.99
2019-03-30T11:20:42.389Z,30.05
2019-03-30T11:21:42.390Z,30.02
2019-03-30T11:22:42.385Z,30.17
2019-03-30T11:23:42.385Z,30.26
2019-03-30T11:24:42.384Z,30.35
2019-03-30T11:25:42.382Z,30.40
2019-03-30T11:26:42.377Z,30.51
2019-03-30T11:27:42.376Z,30.59
2019-03-30T11:28:42.375Z,30.52
2019-03-30T11:29:42.370Z,30.32
2019-03-30T11:30:42.371Z,30.17
2019-03-30T11:31:42.371Z,30.11
2019-03-30T11:32:42.367Z,29.94
2019-03-30T11:33:42.368Z,29.90
2019-03-30T11:34:42.366Z,29.89
2019-03-30T11:35:42.362Z,30.01
2019-03-30T11:36:42.361Z,30.08
2019-03-30T11:37:42.360Z,30.23
2019-03-30T11:38:42.361Z,30.24
2019-03-30T11:39:42.357Z,30.14
2019-03-30T11:40:42.359Z,30.21
2019-03-30T11:41:42.354Z,30.17
2019-03-30T11:42:42.358Z,30.18
2019-03-30T11:43:42.355Z,30.11
2019-03-30T11:44:42.355Z,30.11
2019-03-30T11:45:42.351Z,29.99
2019-03-30T11:46:42.350Z,29.92
2019-03-30T11:47:42.344Z,29.87
2019-03-30T11:48:42.345Z,29.80
2019-03-30T11:49:42.344Z,29.67
2019-03-30T11:50:42.339Z,29.67
2019-03-30T11:51:42.348Z,29.74
2019-03-30T11:52:42.339Z,29.79
2019-03-30T11:53:42.334Z,30.01
2019-03-30T11:54:42.333Z,30.10
2019-03-30T11:55:42.333Z,30.33
2019-03-30T11:56:42.331Z,30.49
2019-03-30T11:57:42.332Z,30.65
2019-03-30T11:58:42.330Z,30.74
2019-03-30T11:59:42.326Z,30.92
2019-03-30T12:00:42.321Z,30.98
2019-03-30T12:01:42.318Z,31.20
2019-03-30T12:02:42.321Z,31.41
2019-03-30T12:03:42.321Z,31.52
2019-03-30T12:04:42.324Z,31.66
2019-03-30T12:05:42.317Z,31.64
2019-03-30T12:06:42.317Z,31.66
2019-03-30T12:07:42.319Z,31.77
2019-03-30T12:08:42.314Z,31.92
2019-03-30T12:09:42.314Z,32.01
2019-03-30T12:10:42.316Z,32.12
2019-03-30T12:11:42.334Z,32.38
2019-03-30T12:12:42.322Z,32.66
2019-03-30T12:13:42.316Z,32.81
2019-03-30T12:14:42.314Z,32.81
2019-03-30T12:15:42.316Z,32.59
2019-03-30T12:16:42.320Z,32.24
2019-03-30T12:17:42.311Z,31.89
2019-03-30T12:18:42.314Z,31.60
2019-03-30T12:19:42.315Z,31.36
2019-03-30T12:20:42.313Z,31.25
2019-03-30T12:21:42.314Z,31.26
2019-03-30T12:22:42.311Z,31.00
2019-03-30T12:23:42.749Z,30.74
2019-03-30T12:24:42.313Z,30.13
2019-03-30T12:25:42.312Z,29.46
2019-03-30T12:26:42.310Z,29.06
2019-03-30T12:27:42.312Z,28.84
2019-03-30T12:28:42.313Z,28.90
2019-03-30T12:29:44.518Z,28.72
2019-03-30T12:30:42.305Z,28.83
2019-03-30T12:31:42.307Z,28.74
2019-03-30T12:32:42.304Z,28.60
2019-03-30T12:33:42.304Z,28.62
2019-03-30T12:34:42.304Z,28.77
2019-03-30T12:35:42.303Z,28.97
2019-03-30T12:36:42.300Z,29.07
2019-03-30T12:37:42.301Z,29.09
2019-03-30T12:38:42.298Z,29.25
2019-03-30T12:39:42.355Z,29.24
2019-03-30T12:40:42.297Z,29.25
2019-03-30T12:41:42.295Z,29.16
2019-03-30T12:42:42.298Z,28.96
2019-03-30T12:43:42.295Z,28.86
2019-03-30T12:44:42.292Z,29.00
2019-03-30T12:45:42.293Z,29.09
2019-03-30T12:46:42.292Z,29.02
2019-03-30T12:47:42.296Z,28.84
2019-03-30T12:48:42.292Z,28.70
2019-03-30T12:49:45.108Z,28.55
2019-03-30T12:50:42.288Z,28.37
2019-03-30T12:51:42.292Z,28.16
2019-03-30T12:52:42.316Z,28.18
2019-03-30T12:53:50.114Z,27.94
2019-03-30T12:54:42.283Z,27.79
2019-03-30T12:55:49.256Z,27.79
2019-03-30T12:56:42.289Z,27.85
2019-03-30T12:57:42.306Z,27.88
2019-03-30T12:58:42.290Z,28.13
2019-03-30T12:59:42.284Z,28.49
2019-03-30T13:00:42.294Z,28.65
2019-03-30T13:01:42.288Z,28.84
2019-03-30T13:02:42.289Z,29.12
2019-03-30T13:03:42.288Z,29.12
2019-03-30T13:04:42.290Z,29.12
2019-03-30T13:05:42.288Z,29.15